sensor_id;sensor_type;location;lat;lon;timestamp;temperature;humidity
610;DHT22;292;48.800;9.216;2024-02-04T01:20:12;11.30;68.70
610;DHT22;292;48.800;9.216;2024-02-04T01:29:49;11.20;68.50
610;DHT22;292;48.800;9.216;2024-02-04T01:39:42;11.20;68.50
610;DHT22;292;48.800;9.216;2024-02-04T04:18:45;10.60;71.10
610;DHT22;292;48.800;9.216;2024-02-04T04:28:30;10.70;71.10
610;DHT22;292;48.800;9.216;2024-02-04T04:38:23;10.70;70.90
610;DHT22;292;48.800;9.216;2024-02-04T04:48:13;10.70;71.10
610;DHT22;292;48.800;9.216;2024-02-04T04:50:40;10.80;70.90
610;DHT22;292;48.800;9.216;2024-02-04T05:00:16;10.90;70.80
610;DHT22;292;48.800;9.216;2024-02-04T05:10:04;10.90;70.80
610;DHT22;292;48.800;9.216;2024-02-04T07:08:31;10.60;70.90
610;DHT22;292;48.800;9.216;2024-02-04T07:10:58;10.60;70.90
610;DHT22;292;48.800;9.216;2024-02-04T07:13:25;10.60;70.90
610;DHT22;292;48.800;9.216;2024-02-04T07:15:52;10.60;70.90
610;DHT22;292;48.800;9.216;2024-02-04T07:18:20;10.60;70.90
610;DHT22;292;48.800;9.216;2024-02-04T07:20:48;10.70;70.90
610;DHT22;292;48.800;9.216;2024-02-04T07:23:14;10.70;71.10
610;DHT22;292;48.800;9.216;2024-02-04T07:25:43;10.70;70.90
610;DHT22;292;48.800;9.216;2024-02-04T07:28:11;10.70;70.90
610;DHT22;292;48.800;9.216;2024-02-04T07:30:38;10.70;71.10
610;DHT22;292;48.800;9.216;2024-02-04T07:33:04;10.70;71.10
610;DHT22;292;48.800;9.216;2024-02-04T07:35:32;10.70;71.10
610;DHT22;292;48.800;9.216;2024-02-04T07:37:59;10.70;71.10
610;DHT22;292;48.800;9.216;2024-02-04T07:40:26;10.60;70.90
610;DHT22;292;48.800;9.216;2024-02-04T07:42:55;10.60;71.10
610;DHT22;292;48.800;9.216;2024-02-04T07:45:22;10.60;71.10
610;DHT22;292;48.800;9.216;2024-02-04T07:47:49;10.60;71.20
610;DHT22;292;48.800;9.216;2024-02-04T07:50:16;10.60;71.20
610;DHT22;292;48.800;9.216;2024-02-04T07:52:43;10.70;71.30
610;DHT22;292;48.800;9.216;2024-02-04T07:55:10;10.70;71.30
610;DHT22;292;48.800;9.216;2024-02-04T07:57:37;10.70;71.30
610;DHT22;292;48.800;9.216;2024-02-04T08:00:06;10.80;71.20
610;DHT22;292;48.800;9.216;2024-02-04T08:02:35;10.80;71.10
610;DHT22;292;48.800;9.216;2024-02-04T08:05:03;10.80;70.90
610;DHT22;292;48.800;9.216;2024-02-04T08:07:30;10.90;70.80
610;DHT22;292;48.800;9.216;2024-02-04T08:09:57;10.90;70.80
610;DHT22;292;48.800;9.216;2024-02-04T08:12:24;10.90;70.60
610;DHT22;292;48.800;9.216;2024-02-04T08:14:51;10.90;70.50
610;DHT22;292;48.800;9.216;2024-02-04T08:17:20;11.00;70.30
610;DHT22;292;48.800;9.216;2024-02-04T08:19:46;11.00;70.30
610;DHT22;292;48.800;9.216;2024-02-04T08:22:13;11.00;70.30
610;DHT22;292;48.800;9.216;2024-02-04T08:24:40;11.00;70.20
610;DHT22;292;48.800;9.216;2024-02-04T08:27:07;11.00;70.30
610;DHT22;292;48.800;9.216;2024-02-04T08:29:34;11.00;70.00
610;DHT22;292;48.800;9.216;2024-02-04T08:32:01;11.00;70.20
610;DHT22;292;48.800;9.216;2024-02-04T08:34:30;11.00;70.20
610;DHT22;292;48.800;9.216;2024-02-04T08:36:56;11.00;70.20
610;DHT22;292;48.800;9.216;2024-02-04T08:39:23;11.10;70.00
610;DHT22;292;48.800;9.216;2024-02-04T08:41:51;11.00;69.90
610;DHT22;292;48.800;9.216;2024-02-04T08:44:18;11.00;70.20
610;DHT22;292;48.800;9.216;2024-02-04T08:46:45;11.10;70.30
610;DHT22;292;48.800;9.216;2024-02-04T08:49:12;11.10;70.20
610;DHT22;292;48.800;9.216;2024-02-04T08:51:40;11.10;70.00
610;DHT22;292;48.800;9.216;2024-02-04T08:54:07;11.20;70.20
610;DHT22;292;48.800;9.216;2024-02-04T08:56:34;11.20;69.90
610;DHT22;292;48.800;9.216;2024-02-04T08:59:01;11.20;69.90
610;DHT22;292;48.800;9.216;2024-02-04T09:01:28;11.20;69.80
610;DHT22;292;48.800;9.216;2024-02-04T09:03:55;11.20;69.60
610;DHT22;292;48.800;9.216;2024-02-04T09:06:21;11.20;69.60
610;DHT22;292;48.800;9.216;2024-02-04T09:08:50;11.30;69.80
610;DHT22;292;48.800;9.216;2024-02-04T09:11:17;11.30;69.60
610;DHT22;292;48.800;9.216;2024-02-04T09:13:46;11.30;69.30
610;DHT22;292;48.800;9.216;2024-02-04T09:16:13;11.30;69.60
610;DHT22;292;48.800;9.216;2024-02-04T09:18:40;11.30;69.60
610;DHT22;292;48.800;9.216;2024-02-04T09:21:07;11.30;69.30
610;DHT22;292;48.800;9.216;2024-02-04T09:23:34;11.40;69.20
610;DHT22;292;48.800;9.216;2024-02-04T09:26:02;11.30;69.20
610;DHT22;292;48.800;9.216;2024-02-04T09:28:29;11.40;69.20
610;DHT22;292;48.800;9.216;2024-02-04T09:30:56;11.40;69.20
610;DHT22;292;48.800;9.216;2024-02-04T09:33:24;11.40;69.20
610;DHT22;292;48.800;9.216;2024-02-04T09:35:51;11.50;69.30
610;DHT22;292;48.800;9.216;2024-02-04T09:38:19;11.50;69.20
610;DHT22;292;48.800;9.216;2024-02-04T09:40:47;11.50;69.30
610;DHT22;292;48.800;9.216;2024-02-04T09:43:15;11.60;69.20
610;DHT22;292;48.800;9.216;2024-02-04T09:45:42;11.60;69.30
610;DHT22;292;48.800;9.216;2024-02-04T09:48:09;11.60;69.20
610;DHT22;292;48.800;9.216;2024-02-04T09:50:37;11.70;69.20
610;DHT22;292;48.800;9.216;2024-02-04T09:53:07;11.80;69.00
610;DHT22;292;48.800;9.216;2024-02-04T09:55:38;11.80;69.00
610;DHT22;292;48.800;9.216;2024-02-04T09:58:06;11.80;69.00
610;DHT22;292;48.800;9.216;2024-02-04T10:00:35;11.90;69.20
610;DHT22;292;48.800;9.216;2024-02-04T10:03:05;12.00;68.70
610;DHT22;292;48.800;9.216;2024-02-04T10:05:32;12.00;68.60
610;DHT22;292;48.800;9.216;2024-02-04T10:08:00;12.00;68.50
610;DHT22;292;48.800;9.216;2024-02-04T10:10:26;12.10;68.30
610;DHT22;292;48.800;9.216;2024-02-04T10:12:55;12.20;68.00
610;DHT22;292;48.800;9.216;2024-02-04T10:15:22;12.20;67.90
610;DHT22;292;48.800;9.216;2024-02-04T10:17:51;12.20;67.90
610;DHT22;292;48.800;9.216;2024-02-04T10:20:19;12.30;67.70
610;DHT22;292;48.800;9.216;2024-02-04T10:22:46;12.30;67.60
610;DHT22;292;48.800;9.216;2024-02-04T10:25:15;12.40;67.30
610;DHT22;292;48.800;9.216;2024-02-04T10:27:42;12.40;67.30
610;DHT22;292;48.800;9.216;2024-02-04T10:30:10;12.50;67.50
610;DHT22;292;48.800;9.216;2024-02-04T10:32:37;12.60;67.30
610;DHT22;292;48.800;9.216;2024-02-04T10:35:06;12.70;66.70
610;DHT22;292;48.800;9.216;2024-02-04T10:37:34;12.70;66.40
610;DHT22;292;48.800;9.216;2024-02-04T10:40:01;12.80;66.30
610;DHT22;292;48.800;9.216;2024-02-04T10:42:28;12.90;66.30
610;DHT22;292;48.800;9.216;2024-02-04T10:44:57;13.00;65.70
610;DHT22;292;48.800;9.216;2024-02-04T10:47:28;13.00;65.60
610;DHT22;292;48.800;9.216;2024-02-04T10:49:58;13.00;65.40
610;DHT22;292;48.800;9.216;2024-02-04T10:52:27;13.10;65.30
610;DHT22;292;48.800;9.216;2024-02-04T10:54:55;13.10;65.30
610;DHT22;292;48.800;9.216;2024-02-04T10:57:24;13.20;65.40
610;DHT22;292;48.800;9.216;2024-02-04T10:59:52;13.30;65.30
610;DHT22;292;48.800;9.216;2024-02-04T11:02:20;13.30;64.90
610;DHT22;292;48.800;9.216;2024-02-04T11:04:48;13.40;64.70
610;DHT22;292;48.800;9.216;2024-02-04T11:07:17;13.50;64.00
610;DHT22;292;48.800;9.216;2024-02-04T11:09:46;13.40;64.00
610;DHT22;292;48.800;9.216;2024-02-04T11:12:18;13.40;63.60
610;DHT22;292;48.800;9.216;2024-02-04T11:14:50;13.40;63.60
610;DHT22;292;48.800;9.216;2024-02-04T11:17:50;13.30;63.60
610;DHT22;292;48.800;9.216;2024-02-04T11:20:32;13.30;63.80
610;DHT22;292;48.800;9.216;2024-02-04T11:23:15;13.30;64.00
610;DHT22;292;48.800;9.216;2024-02-04T11:25:49;13.40;64.30
610;DHT22;292;48.800;9.216;2024-02-04T11:28:18;13.50;64.10
610;DHT22;292;48.800;9.216;2024-02-04T11:30:46;13.60;64.00
610;DHT22;292;48.800;9.216;2024-02-04T11:33:18;13.70;63.70
610;DHT22;292;48.800;9.216;2024-02-04T11:35:46;13.80;63.40
610;DHT22;292;48.800;9.216;2024-02-04T11:38:17;13.90;63.00
610;DHT22;292;48.800;9.216;2024-02-04T11:40:47;13.90;62.80
610;DHT22;292;48.800;9.216;2024-02-04T11:43:14;13.90;62.70
610;DHT22;292;48.800;9.216;2024-02-04T11:45:42;13.90;62.70
610;DHT22;292;48.800;9.216;2024-02-04T11:48:10;13.90;62.50
610;DHT22;292;48.800;9.216;2024-02-04T11:50:38;13.90;62.80
610;DHT22;292;48.800;9.216;2024-02-04T11:53:06;13.90;63.30
610;DHT22;292;48.800;9.216;2024-02-04T11:55:34;14.00;63.10
610;DHT22;292;48.800;9.216;2024-02-04T11:58:03;14.00;63.10
610;DHT22;292;48.800;9.216;2024-02-04T12:00:32;14.10;62.70
610;DHT22;292;48.800;9.216;2024-02-04T12:03:00;14.20;62.50
610;DHT22;292;48.800;9.216;2024-02-04T12:05:28;14.20;62.30
610;DHT22;292;48.800;9.216;2024-02-04T12:07:55;14.20;62.40
610;DHT22;292;48.800;9.216;2024-02-04T12:10:22;14.20;62.30
610;DHT22;292;48.800;9.216;2024-02-04T12:12:50;14.20;62.40
610;DHT22;292;48.800;9.216;2024-02-04T12:15:18;14.20;62.50
610;DHT22;292;48.800;9.216;2024-02-04T12:17:46;14.20;62.00
610;DHT22;292;48.800;9.216;2024-02-04T12:20:13;14.20;62.10
610;DHT22;292;48.800;9.216;2024-02-04T12:22:40;14.20;62.10
610;DHT22;292;48.800;9.216;2024-02-04T12:25:08;14.20;62.10
610;DHT22;292;48.800;9.216;2024-02-04T12:27:36;14.10;62.40
610;DHT22;292;48.800;9.216;2024-02-04T12:30:04;14.10;62.30
610;DHT22;292;48.800;9.216;2024-02-04T12:32:34;14.10;62.40
610;DHT22;292;48.800;9.216;2024-02-04T12:35:02;14.10;62.40
610;DHT22;292;48.800;9.216;2024-02-04T12:37:29;14.00;62.70
610;DHT22;292;48.800;9.216;2024-02-04T12:39:59;14.10;62.70
610;DHT22;292;48.800;9.216;2024-02-04T12:42:28;14.00;62.50
610;DHT22;292;48.800;9.216;2024-02-04T12:44:56;14.00;62.10
610;DHT22;292;48.800;9.216;2024-02-04T12:47:24;14.00;62.10
610;DHT22;292;48.800;9.216;2024-02-04T12:49:59;14.00;62.40
610;DHT22;292;48.800;9.216;2024-02-04T12:52:28;14.00;62.50
610;DHT22;292;48.800;9.216;2024-02-04T12:54:57;14.00;62.50
610;DHT22;292;48.800;9.216;2024-02-04T12:57:24;14.00;62.80
610;DHT22;292;48.800;9.216;2024-02-04T12:59:51;14.00;63.10
610;DHT22;292;48.800;9.216;2024-02-04T13:02:17;14.00;63.30
610;DHT22;292;48.800;9.216;2024-02-04T13:04:44;14.10;63.30
610;DHT22;292;48.800;9.216;2024-02-04T13:07:13;14.10;63.40
610;DHT22;292;48.800;9.216;2024-02-04T13:09:42;14.10;63.30
610;DHT22;292;48.800;9.216;2024-02-04T13:12:14;14.20;62.80
610;DHT22;292;48.800;9.216;2024-02-04T13:14:42;14.20;62.70
610;DHT22;292;48.800;9.216;2024-02-04T13:17:10;14.30;62.40
610;DHT22;292;48.800;9.216;2024-02-04T13:19:38;14.30;62.10
610;DHT22;292;48.800;9.216;2024-02-04T13:22:05;14.30;62.30
610;DHT22;292;48.800;9.216;2024-02-04T13:24:34;14.30;61.80
610;DHT22;292;48.800;9.216;2024-02-04T13:27:01;14.30;61.50
610;DHT22;292;48.800;9.216;2024-02-04T13:29:29;14.30;61.50
610;DHT22;292;48.800;9.216;2024-02-04T13:31:57;14.20;61.70
610;DHT22;292;48.800;9.216;2024-02-04T13:34:24;14.20;61.80
610;DHT22;292;48.800;9.216;2024-02-04T13:36:51;14.10;62.00
610;DHT22;292;48.800;9.216;2024-02-04T13:39:18;14.10;62.10
610;DHT22;292;48.800;9.216;2024-02-04T13:41:47;14.00;62.30
610;DHT22;292;48.800;9.216;2024-02-04T13:44:14;14.00;62.40
610;DHT22;292;48.800;9.216;2024-02-04T13:46:41;14.00;62.70
610;DHT22;292;48.800;9.216;2024-02-04T13:49:08;14.00;62.80
610;DHT22;292;48.800;9.216;2024-02-04T13:51:35;14.00;63.00
610;DHT22;292;48.800;9.216;2024-02-04T13:54:02;14.00;63.10
610;DHT22;292;48.800;9.216;2024-02-04T13:56:29;14.10;63.30
610;DHT22;292;48.800;9.216;2024-02-04T13:59:00;14.10;63.00
610;DHT22;292;48.800;9.216;2024-02-04T14:01:27;14.10;63.00
610;DHT22;292;48.800;9.216;2024-02-04T14:03:54;14.10;63.10
610;DHT22;292;48.800;9.216;2024-02-04T14:06:21;14.10;62.80
610;DHT22;292;48.800;9.216;2024-02-04T14:08:48;14.10;62.70
610;DHT22;292;48.800;9.216;2024-02-04T14:11:14;14.10;62.70
610;DHT22;292;48.800;9.216;2024-02-04T14:13:41;14.10;62.50
610;DHT22;292;48.800;9.216;2024-02-04T14:16:10;14.10;62.70
610;DHT22;292;48.800;9.216;2024-02-04T14:18:37;14.10;62.80
610;DHT22;292;48.800;9.216;2024-02-04T14:21:06;14.20;62.80
610;DHT22;292;48.800;9.216;2024-02-04T14:23:35;14.20;63.00
610;DHT22;292;48.800;9.216;2024-02-04T14:26:02;14.20;62.50
610;DHT22;292;48.800;9.216;2024-02-04T14:28:32;14.10;62.70
610;DHT22;292;48.800;9.216;2024-02-04T14:31:01;14.10;62.70
610;DHT22;292;48.800;9.216;2024-02-04T14:33:30;14.10;62.50
610;DHT22;292;48.800;9.216;2024-02-04T14:35:57;14.10;62.40
610;DHT22;292;48.800;9.216;2024-02-04T14:38:25;14.00;62.50
610;DHT22;292;48.800;9.216;2024-02-04T14:40:52;14.00;62.70
610;DHT22;292;48.800;9.216;2024-02-04T14:43:19;14.00;62.80
610;DHT22;292;48.800;9.216;2024-02-04T14:45:48;13.90;62.80
610;DHT22;292;48.800;9.216;2024-02-04T14:48:15;13.90;62.80
610;DHT22;292;48.800;9.216;2024-02-04T14:50:44;13.80;62.80
610;DHT22;292;48.800;9.216;2024-02-04T14:53:10;13.80;63.30
610;DHT22;292;48.800;9.216;2024-02-04T14:55:37;13.70;63.60
610;DHT22;292;48.800;9.216;2024-02-04T14:58:04;13.70;63.70
610;DHT22;292;48.800;9.216;2024-02-04T15:00:31;13.70;64.00
610;DHT22;292;48.800;9.216;2024-02-04T15:02:58;13.70;64.10
610;DHT22;292;48.800;9.216;2024-02-04T15:05:26;13.70;64.10
610;DHT22;292;48.800;9.216;2024-02-04T15:07:54;13.60;64.30
610;DHT22;292;48.800;9.216;2024-02-04T15:10:21;13.60;64.10
610;DHT22;292;48.800;9.216;2024-02-04T15:12:49;13.60;64.30
610;DHT22;292;48.800;9.216;2024-02-04T15:15:18;13.50;64.40
610;DHT22;292;48.800;9.216;2024-02-04T15:17:46;13.50;64.70
610;DHT22;292;48.800;9.216;2024-02-04T15:20:14;13.50;64.60
610;DHT22;292;48.800;9.216;2024-02-04T15:22:43;13.50;64.60
610;DHT22;292;48.800;9.216;2024-02-04T15:25:13;13.50;64.90
610;DHT22;292;48.800;9.216;2024-02-04T15:27:43;13.50;64.70
610;DHT22;292;48.800;9.216;2024-02-04T15:30:12;13.40;64.90
610;DHT22;292;48.800;9.216;2024-02-04T15:32:40;13.40;64.90
610;DHT22;292;48.800;9.216;2024-02-04T15:35:08;13.40;64.70
610;DHT22;292;48.800;9.216;2024-02-04T15:37:36;13.30;65.00
610;DHT22;292;48.800;9.216;2024-02-04T15:40:04;13.30;65.10
610;DHT22;292;48.800;9.216;2024-02-04T15:42:33;13.30;65.10
610;DHT22;292;48.800;9.216;2024-02-04T15:45:00;13.30;65.10
610;DHT22;292;48.800;9.216;2024-02-04T15:47:27;13.30;65.30
610;DHT22;292;48.800;9.216;2024-02-04T15:49:58;13.30;65.30
610;DHT22;292;48.800;9.216;2024-02-04T15:52:25;13.30;65.30
610;DHT22;292;48.800;9.216;2024-02-04T15:54:57;13.20;65.30
610;DHT22;292;48.800;9.216;2024-02-04T16:04:35;13.20;65.40
610;DHT22;292;48.800;9.216;2024-02-04T16:14:29;13.10;65.90
610;DHT22;292;48.800;9.216;2024-02-04T16:24:18;13.00;66.40
610;DHT22;292;48.800;9.216;2024-02-04T16:34:13;12.90;66.60
610;DHT22;292;48.800;9.216;2024-02-04T17:46:44;12.30;68.60
610;DHT22;292;48.800;9.216;2024-02-04T17:56:37;12.30;68.70
610;DHT22;292;48.800;9.216;2024-02-04T18:16:23;12.30;69.00
610;DHT22;292;48.800;9.216;2024-02-04T18:26:20;12.20;69.50
610;DHT22;292;48.800;9.216;2024-02-04T18:29:05;12.20;69.60
610;DHT22;292;48.800;9.216;2024-02-04T18:31:54;12.20;69.60
610;DHT22;292;48.800;9.216;2024-02-04T18:34:21;12.20;69.60
610;DHT22;292;48.800;9.216;2024-02-04T18:36:48;12.20;69.50
610;DHT22;292;48.800;9.216;2024-02-04T18:39:15;12.20;69.60
610;DHT22;292;48.800;9.216;2024-02-04T18:41:42;12.10;69.60
610;DHT22;292;48.800;9.216;2024-02-04T18:44:12;12.10;69.90
610;DHT22;292;48.800;9.216;2024-02-04T18:46:41;12.10;70.00
610;DHT22;292;48.800;9.216;2024-02-04T18:49:10;12.10;70.00
610;DHT22;292;48.800;9.216;2024-02-04T18:51:39;12.10;70.00
610;DHT22;292;48.800;9.216;2024-02-04T18:54:07;12.10;70.20
610;DHT22;292;48.800;9.216;2024-02-04T18:56:34;12.10;70.20
610;DHT22;292;48.800;9.216;2024-02-04T18:59:01;12.10;70.20
610;DHT22;292;48.800;9.216;2024-02-04T19:01:34;12.20;70.00
610;DHT22;292;48.800;9.216;2024-02-04T19:04:01;12.20;70.00
610;DHT22;292;48.800;9.216;2024-02-04T19:06:29;12.20;70.00
610;DHT22;292;48.800;9.216;2024-02-04T19:08:57;12.20;69.90
610;DHT22;292;48.800;9.216;2024-02-04T19:11:24;12.20;69.90
610;DHT22;292;48.800;9.216;2024-02-04T19:13:51;12.20;69.90
610;DHT22;292;48.800;9.216;2024-02-04T19:16:21;12.20;69.80
610;DHT22;292;48.800;9.216;2024-02-04T19:18:49;12.20;69.80
610;DHT22;292;48.800;9.216;2024-02-04T19:21:16;12.20;69.80
610;DHT22;292;48.800;9.216;2024-02-04T19:23:45;12.20;69.80
610;DHT22;292;48.800;9.216;2024-02-04T19:26:12;12.20;69.90
610;DHT22;292;48.800;9.216;2024-02-04T19:28:40;12.20;69.90
610;DHT22;292;48.800;9.216;2024-02-04T19:31:08;12.20;69.90
610;DHT22;292;48.800;9.216;2024-02-04T19:33:35;12.10;70.00
610;DHT22;292;48.800;9.216;2024-02-04T19:36:02;12.10;70.00
610;DHT22;292;48.800;9.216;2024-02-04T19:38:29;12.10;69.90
610;DHT22;292;48.800;9.216;2024-02-04T19:40:58;12.10;70.00
610;DHT22;292;48.800;9.216;2024-02-04T19:43:25;12.00;70.00
610;DHT22;292;48.800;9.216;2024-02-04T19:45:55;12.00;70.20
610;DHT22;292;48.800;9.216;2024-02-04T19:48:22;12.00;70.20
610;DHT22;292;48.800;9.216;2024-02-04T19:50:49;12.00;70.50
610;DHT22;292;48.800;9.216;2024-02-04T19:53:16;12.00;70.50
610;DHT22;292;48.800;9.216;2024-02-04T19:55:43;12.00;70.30
610;DHT22;292;48.800;9.216;2024-02-04T19:58:12;11.90;70.50
610;DHT22;292;48.800;9.216;2024-02-04T20:00:40;11.90;70.30
610;DHT22;292;48.800;9.216;2024-02-04T20:03:06;11.90;70.30
610;DHT22;292;48.800;9.216;2024-02-04T20:05:33;11.90;70.50
610;DHT22;292;48.800;9.216;2024-02-04T20:08:01;11.90;70.30
610;DHT22;292;48.800;9.216;2024-02-04T20:10:28;11.90;70.30
610;DHT22;292;48.800;9.216;2024-02-04T20:12:54;11.90;70.20
610;DHT22;292;48.800;9.216;2024-02-04T20:15:23;11.90;70.20
610;DHT22;292;48.800;9.216;2024-02-04T20:17:53;11.80;70.30
610;DHT22;292;48.800;9.216;2024-02-04T20:20:20;11.80;70.30
610;DHT22;292;48.800;9.216;2024-02-04T20:22:51;11.80;70.50
610;DHT22;292;48.800;9.216;2024-02-04T20:25:20;11.80;70.50
610;DHT22;292;48.800;9.216;2024-02-04T20:27:49;11.80;70.60
610;DHT22;292;48.800;9.216;2024-02-04T20:30:16;11.70;70.60
610;DHT22;292;48.800;9.216;2024-02-04T20:32:44;11.70;70.80
610;DHT22;292;48.800;9.216;2024-02-04T20:35:11;11.70;70.80
610;DHT22;292;48.800;9.216;2024-02-04T20:37:38;11.70;70.90
610;DHT22;292;48.800;9.216;2024-02-04T20:40:07;11.70;71.10
610;DHT22;292;48.800;9.216;2024-02-04T20:42:34;11.70;71.10
610;DHT22;292;48.800;9.216;2024-02-04T20:45:01;11.70;71.10
610;DHT22;292;48.800;9.216;2024-02-04T20:47:28;11.70;70.90
610;DHT22;292;48.800;9.216;2024-02-04T20:49:56;11.70;70.90
610;DHT22;292;48.800;9.216;2024-02-04T20:52:24;11.70;71.10
610;DHT22;292;48.800;9.216;2024-02-04T20:54:50;11.60;71.10
610;DHT22;292;48.800;9.216;2024-02-04T20:57:18;11.60;71.20
610;DHT22;292;48.800;9.216;2024-02-04T20:59:45;11.60;71.10
610;DHT22;292;48.800;9.216;2024-02-04T21:02:12;11.60;71.20
610;DHT22;292;48.800;9.216;2024-02-04T21:04:39;11.60;71.20
610;DHT22;292;48.800;9.216;2024-02-04T21:07:08;11.60;71.20
610;DHT22;292;48.800;9.216;2024-02-04T21:09:35;11.50;71.20
610;DHT22;292;48.800;9.216;2024-02-04T21:12:04;11.50;71.20
610;DHT22;292;48.800;9.216;2024-02-04T21:14:31;11.50;71.20
610;DHT22;292;48.800;9.216;2024-02-04T21:16:58;11.50;71.20
610;DHT22;292;48.800;9.216;2024-02-04T21:19:25;11.50;71.20
610;DHT22;292;48.800;9.216;2024-02-04T21:21:52;11.40;71.50
610;DHT22;292;48.800;9.216;2024-02-04T21:24:21;11.40;71.60
610;DHT22;292;48.800;9.216;2024-02-04T21:26:48;11.40;71.80
610;DHT22;292;48.800;9.216;2024-02-04T21:29:15;11.30;71.80
610;DHT22;292;48.800;9.216;2024-02-04T21:31:42;11.30;71.80
610;DHT22;292;48.800;9.216;2024-02-04T21:34:09;11.20;71.90
610;DHT22;292;48.800;9.216;2024-02-04T21:36:36;11.20;71.90
610;DHT22;292;48.800;9.216;2024-02-04T21:39:03;11.20;72.10
610;DHT22;292;48.800;9.216;2024-02-04T21:41:35;11.10;72.10
610;DHT22;292;48.800;9.216;2024-02-04T21:44:01;11.10;72.10
610;DHT22;292;48.800;9.216;2024-02-04T21:46:29;11.00;72.20
610;DHT22;292;48.800;9.216;2024-02-04T21:48:56;11.00;72.50
610;DHT22;292;48.800;9.216;2024-02-04T21:51:23;11.00;72.50
